Time;durP1;ratioP1;P1;durP2;ratioP2;P2;SDS_P1;SDS_P2;PMS_P1;PMS_P2;Temp;Humidity;BMP_temperature;BMP_pressure;BME280_temperature;BME280_humidity;BME280_pressure;Samples;Min_cycle;Max_cycle;Signal;HPM_P1;HPM_P2
2022/04/13 00:02:23;;;;;;;7.40;6.70;;;22.00;65.90;;;;;;6236314;28;84130;-76
2022/04/13 00:05:26;;;;;;;7.25;6.55;;;21.90;65.90;;;;;;6236470;28;84339;-75
2022/04/13 00:08:28;;;;;;;7.38;6.68;;;21.90;65.80;;;;;;6235840;28;84334;-76
2022/04/13 00:11:31;;;;;;;6.95;6.25;;;21.90;65.80;;;;;;6246660;28;84022;-76
2022/04/13 00:14:33;;;;;;;7.65;6.95;;;21.90;65.90;;;;;;6257694;27;83278;-75
2022/04/13 00:17:37;;;;;;;6.95;6.32;;;21.90;65.90;;;;;;6260778;28;83958;-76
2022/04/13 00:20:39;;;;;;;7.35;6.65;;;21.90;65.90;;;;;;6262250;27;84013;-76
2022/04/13 00:23:41;;;;;;;7.68;6.97;;;21.90;65.90;;;;;;6251845;27;84154;-76
2022/04/13 00:26:44;;;;;;;6.75;6.15;;;21.90;65.90;;;;;;6235771;28;83993;-76
2022/04/13 00:29:46;;;;;;;6.70;6.10;;;21.90;65.90;;;;;;6252638;28;84455;-76
2022/04/13 00:32:48;;;;;;;7.47;6.78;;;21.90;65.90;;;;;;6260146;28;83002;-76
2022/04/13 00:35:50;;;;;;;7.28;6.57;;;21.90;65.90;;;;;;6260128;27;84131;-75
2022/04/13 00:38:52;;;;;;;7.10;6.45;;;21.90;65.90;;;;;;6259918;27;82024;-74
2022/04/13 00:42:00;;;;;;;6.60;6.00;;;21.90;65.90;;;;;;6240308;27;84096;-76
2022/04/13 00:45:03;;;;;;;6.53;5.93;;;21.90;66.00;;;;;;6237750;28;83615;-76
2022/04/13 00:48:06;;;;;;;6.72;6.13;;;21.90;66.00;;;;;;6259264;27;83317;-76
2022/04/13 00:51:09;;;;;;;6.63;6.03;;;21.90;66.10;;;;;;6260884;27;84213;-77
2022/04/13 00:54:13;;;;;;;6.40;5.80;;;21.90;66.00;;;;;;6259233;27;85025;-76
2022/04/13 00:57:18;;;;;;;6.65;6.05;;;21.90;66.10;;;;;;6259738;27;84078;-75
2022/04/13 01:00:20;;;;;;;6.35;5.75;;;21.90;66.10;;;;;;6259756;27;84503;-76
2022/04/13 01:03:24;;;;;;;6.43;5.82;;;21.80;66.00;;;;;;6258824;27;83958;-76
2022/04/13 01:06:27;;;;;;;6.45;5.85;;;21.90;66.10;;;;;;6260211;27;84204;-76
2022/04/13 01:09:31;;;;;;;6.38;5.78;;;21.80;66.00;;;;;;6258162;27;83851;-74
2022/04/13 01:12:35;;;;;;;6.60;5.97;;;21.90;66.10;;;;;;6260574;27;84023;-76
2022/04/13 01:15:37;;;;;;;6.07;5.57;;;21.80;66.10;;;;;;6259345;27;82221;-76
2022/04/13 01:18:39;;;;;;;6.22;5.63;;;21.90;66.10;;;;;;6258933;27;84018;-76
2022/04/13 01:21:45;;;;;;;6.45;5.85;;;21.90;66.10;;;;;;6258836;28;83038;-77
2022/04/13 01:24:49;;;;;;;6.15;5.57;;;21.80;66.00;;;;;;6252360;28;83956;-76
2022/04/13 01:27:50;;;;;;;5.97;5.38;;;21.80;66.00;;;;;;6260137;27;84141;-75
2022/04/13 01:30:53;;;;;;;6.20;5.63;;;21.80;66.10;;;;;;6258345;27;83607;-76
2022/04/13 01:33:56;;;;;;;6.32;5.72;;;21.80;66.10;;;;;;6260983;28;83450;-77
2022/04/13 01:36:58;;;;;;;6.18;5.57;;;21.80;66.10;;;;;;6259677;27;84065;-76
2022/04/13 01:40:01;;;;;;;5.95;5.40;;;21.80;66.10;;;;;;6256094;27;84325;-76
2022/04/13 01:43:03;;;;;;;6.05;5.45;;;21.80;66.20;;;;;;6246792;28;84176;-75
2022/04/13 01:46:05;;;;;;;6.00;5.50;;;21.80;66.10;;;;;;6259730;27;83473;-76
2022/04/13 01:49:07;;;;;;;6.10;5.50;;;21.80;66.20;;;;;;6258934;27;84179;-76
2022/04/13 01:52:11;;;;;;;6.05;5.45;;;21.80;66.20;;;;;;6257426;27;83928;-76
2022/04/13 01:55:15;;;;;;;6.50;5.90;;;21.80;66.20;;;;;;6260046;27;83823;-76
2022/04/13 01:58:17;;;;;;;6.05;5.45;;;21.80;66.20;;;;;;6258483;27;84362;-76
2022/04/13 02:01:19;;;;;;;5.70;5.20;;;21.80;66.20;;;;;;6259957;27;82156;-76
2022/04/13 02:04:22;;;;;;;5.75;5.25;;;21.80;66.20;;;;;;6258511;27;83175;-76
2022/04/13 02:07:25;;;;;;;5.38;4.88;;;21.80;66.20;;;;;;6261456;27;82938;-76
2022/04/13 02:10:29;;;;;;;5.90;5.40;;;21.80;66.20;;;;;;6263797;27;82740;-76
2022/04/13 02:13:31;;;;;;;5.95;5.45;;;21.80;66.20;;;;;;6263702;27;84225;-75
2022/04/13 02:16:33;;;;;;;6.30;5.70;;;21.80;66.20;;;;;;6261982;27;82185;-75
2022/04/13 02:19:35;;;;;;;5.95;5.25;;;21.80;66.20;;;;;;6262860;27;82912;-76
2022/04/13 02:22:37;;;;;;;5.68;5.18;;;21.70;66.20;;;;;;6263914;27;82733;-75
2022/04/13 02:25:40;;;;;;;5.90;5.40;;;21.70;66.20;;;;;;6261820;27;84914;-77
2022/04/13 02:28:43;;;;;;;6.28;5.68;;;21.80;66.20;;;;;;6264505;27;83901;-76
2022/04/13 02:31:45;;;;;;;6.28;5.68;;;21.80;66.30;;;;;;6256207;27;82913;-77
2022/04/13 02:34:48;;;;;;;6.18;5.60;;;21.80;66.30;;;;;;6260706;27;83967;-76
2022/04/13 02:37:50;;;;;;;6.50;5.90;;;21.70;66.20;;;;;;6263445;27;84668;-77
2022/04/13 02:40:54;;;;;;;5.95;5.45;;;21.70;66.20;;;;;;6252750;27;84032;-77
2022/04/13 02:43:56;;;;;;;6.43;5.82;;;21.70;66.20;;;;;;6235950;28;82058;-76
2022/04/13 02:46:58;;;;;;;6.40;5.80;;;21.70;66.20;;;;;;6238868;28;82328;-77
2022/04/13 02:50:01;;;;;;;6.70;6.10;;;21.80;66.40;;;;;;6262353;28;82830;-77
2022/04/13 02:53:03;;;;;;;6.85;6.15;;;21.70;66.20;;;;;;6261870;27;82744;-77
2022/04/13 02:56:06;;;;;;;6.65;6.05;;;21.70;66.20;;;;;;6260763;27;84658;-77
2022/04/13 02:59:09;;;;;;;6.68;6.07;;;21.70;66.20;;;;;;6262676;27;83261;-76
2022/04/13 03:02:10;;;;;;;6.80;6.20;;;21.70;66.20;;;;;;6260877;27;84037;-76
2022/04/13 03:05:13;;;;;;;6.75;6.15;;;21.70;66.20;;;;;;6261342;27;83081;-75
2022/04/13 03:08:15;;;;;;;6.88;6.28;;;21.70;66.30;;;;;;6263221;27;84108;-75
2022/04/13 03:11:18;;;;;;;6.72;6.13;;;21.70;66.30;;;;;;6262044;27;84023;-75
2022/04/13 03:14:21;;;;;;;6.97;6.28;;;21.70;66.30;;;;;;6262137;27;84387;-76
2022/04/13 03:17:23;;;;;;;7.03;6.35;;;21.70;66.40;;;;;;6262403;27;83383;-74
2022/04/13 03:20:25;;;;;;;6.93;6.32;;;21.70;66.40;;;;;;6260381;28;82983;-76
2022/04/13 03:23:27;;;;;;;7.35;6.65;;;21.70;66.30;;;;;;6262058;28;82924;-75
2022/04/13 03:26:30;;;;;;;7.03;6.40;;;21.70;66.40;;;;;;6262975;27;84693;-73
2022/04/13 03:29:32;;;;;;;7.22;6.53;;;21.70;66.30;;;;;;6260321;27;82957;-75
2022/04/13 03:32:37;;;;;;;7.00;6.40;;;21.70;66.40;;;;;;6263290;27;84069;-76
2022/04/13 03:35:39;;;;;;;7.28;6.57;;;21.60;66.20;;;;;;6260377;27;84017;-76
2022/04/13 03:38:41;;;;;;;6.85;6.25;;;21.70;66.40;;;;;;6262904;27;84215;-75
2022/04/13 03:41:45;;;;;;;6.97;6.30;;;21.70;67.30;;;;;;6242833;27;84030;-76
2022/04/13 03:44:47;;;;;;;7.10;6.47;;;21.70;66.30;;;;;;6237647;28;84272;-74
2022/04/13 03:47:49;;;;;;;7.13;6.50;;;21.70;66.40;;;;;;6236972;28;83535;-75
2022/04/13 03:50:55;;;;;;;7.22;6.53;;;21.70;66.40;;;;;;6235673;28;83204;-76
2022/04/13 03:53:57;;;;;;;7.10;6.50;;;21.60;66.30;;;;;;6236415;28;83595;-75
2022/04/13 03:57:01;;;;;;;7.53;6.85;;;21.70;66.30;;;;;;6234372;28;85098;-76
2022/04/13 04:00:04;;;;;;;7.10;6.47;;;21.70;66.20;;;;;;6236729;28;82951;-77
2022/04/13 04:03:06;;;;;;;6.97;6.38;;;21.70;66.20;;;;;;6234935;28;84093;-77
2022/04/13 04:06:08;;;;;;;7.35;6.65;;;21.70;66.20;;;;;;6235946;28;84362;-76
2022/04/13 04:09:10;;;;;;;6.90;6.30;;;21.70;66.10;;;;;;6236981;28;84052;-76
2022/04/13 04:12:13;;;;;;;7.35;6.65;;;21.70;66.10;;;;;;6255273;27;84151;-76
2022/04/13 04:15:15;;;;;;;7.15;6.55;;;21.70;66.10;;;;;;6253634;27;83036;-76
2022/04/13 04:18:17;;;;;;;7.07;6.47;;;21.70;66.00;;;;;;6261107;27;83313;-77
2022/04/13 04:21:19;;;;;;;7.65;6.95;;;21.80;66.10;;;;;;6261368;27;84096;-78
2022/04/13 04:24:21;;;;;;;7.55;6.85;;;21.80;66.00;;;;;;6260016;27;82798;-76
2022/04/13 04:27:24;;;;;;;7.07;6.47;;;21.80;66.00;;;;;;6260088;27;85186;-75
2022/04/13 04:30:27;;;;;;;6.80;6.18;;;21.80;66.10;;;;;;6259986;27;82052;-74
2022/04/13 04:33:28;;;;;;;7.43;6.72;;;21.80;66.00;;;;;;6258869;27;84066;-76
2022/04/13 04:36:30;;;;;;;6.95;6.35;;;21.70;66.00;;;;;;6261375;27;84008;-76
2022/04/13 04:39:32;;;;;;;7.15;6.45;;;21.80;66.10;;;;;;6261397;27;83999;-76
2022/04/13 04:42:46;;;;;;;6.78;6.18;;;21.80;66.00;;;;;;6236451;27;84056;-76
2022/04/13 04:45:48;;;;;;;7.38;6.68;;;21.80;66.00;;;;;;6239797;28;84108;-76
2022/04/13 04:48:50;;;;;;;6.93;6.32;;;21.80;66.10;;;;;;6262566;27;83266;-74
2022/04/13 04:51:52;;;;;;;6.70;6.10;;;21.80;66.00;;;;;;6259639;27;84637;-77
2022/04/13 04:55:14;;;;;;;7.57;6.88;;;21.80;65.90;;;;;;6260148;28;85499;-76
2022/04/13 04:58:18;;;;;;;7.05;6.35;;;21.80;66.00;;;;;;6258489;27;85065;-76
2022/04/13 05:01:20;;;;;;;6.72;6.13;;;21.80;66.00;;;;;;6261271;27;84036;-76
2022/04/13 05:04:22;;;;;;;6.78;6.18;;;21.80;65.90;;;;;;6258750;27;84298;-76
2022/04/13 05:07:24;;;;;;;6.55;5.95;;;21.80;66.00;;;;;;6261112;27;82916;-77
2022/04/13 05:10:26;;;;;;;6.97;6.38;;;21.80;66.00;;;;;;6259289;27;84048;-75
2022/04/13 05:13:30;;;;;;;6.53;5.93;;;21.80;65.90;;;;;;6260042;27;85099;-76
2022/04/13 05:16:33;;;;;;;7.07;6.38;;;21.80;65.90;;;;;;6258720;27;84192;-73
2022/04/13 05:19:35;;;;;;;6.75;6.15;;;21.80;65.80;;;;;;6261534;27;81930;-77
2022/04/13 05:22:37;;;;;;;6.57;5.97;;;21.90;65.90;;;;;;6260035;27;82706;-76
2022/04/13 05:25:39;;;;;;;6.47;5.88;;;21.90;65.90;;;;;;6258896;27;84019;-77
2022/04/13 05:28:43;;;;;;;6.70;6.10;;;21.90;65.80;;;;;;6257496;27;85000;-75
2022/04/13 05:31:45;;;;;;;6.82;6.13;;;21.90;65.70;;;;;;6259917;27;83991;-77
2022/04/13 05:34:47;;;;;;;5.95;5.45;;;21.90;65.70;;;;;;6259316;27;83211;-77
2022/04/13 05:37:49;;;;;;;6.30;5.70;;;22.00;65.80;;;;;;6259144;27;84325;-76
2022/04/13 05:40:51;;;;;;;6.32;5.80;;;22.00;65.80;;;;;;6248897;27;84040;-76
2022/04/13 05:43:54;;;;;;;6.45;5.85;;;22.00;65.80;;;;;;6239606;28;84028;-76
2022/04/13 05:46:56;;;;;;;6.30;5.70;;;22.00;65.80;;;;;;6237985;28;83251;-77
2022/04/13 05:49:58;;;;;;;5.80;5.30;;;22.00;65.80;;;;;;6237632;28;83153;-76
2022/04/13 05:53:00;;;;;;;6.40;5.80;;;22.00;65.80;;;;;;6240205;28;83935;-76
2022/04/13 05:56:03;;;;;;;6.13;5.53;;;22.00;65.80;;;;;;6239316;28;84199;-77
2022/04/13 05:59:06;;;;;;;6.53;5.93;;;22.00;65.80;;;;;;6237438;28;83831;-76
2022/04/13 06:02:08;;;;;;;5.85;5.22;;;22.00;65.80;;;;;;6237521;28;84032;-75
2022/04/13 06:05:11;;;;;;;6.20;5.60;;;22.00;65.80;;;;;;6239967;28;82890;-77
2022/04/13 06:08:13;;;;;;;6.22;5.63;;;22.10;65.80;;;;;;6239635;28;84146;-76
2022/04/13 06:11:15;;;;;;;5.93;5.32;;;22.10;65.80;;;;;;6255530;28;84535;-76
2022/04/13 06:14:18;;;;;;;5.80;5.30;;;22.10;65.80;;;;;;6263195;27;83988;-75
2022/04/13 06:17:20;;;;;;;6.00;5.40;;;22.10;65.90;;;;;;6261821;27;83265;-74
2022/04/13 06:20:23;;;;;;;5.88;5.38;;;22.10;65.80;;;;;;6263411;27;83601;-76
2022/04/13 06:23:25;;;;;;;6.05;5.45;;;22.10;65.80;;;;;;6261649;27;84263;-75
2022/04/13 06:26:27;;;;;;;5.90;5.40;;;22.10;65.90;;;;;;6263472;27;84406;-76
2022/04/13 06:29:30;;;;;;;5.70;5.20;;;22.20;65.90;;;;;;6262061;27;85001;-76
2022/04/13 06:32:33;;;;;;;6.25;5.68;;;22.10;65.90;;;;;;6263771;27;82873;-75
2022/04/13 06:35:35;;;;;;;5.70;5.20;;;22.10;65.90;;;;;;6263541;27;84200;-75
2022/04/13 06:38:40;;;;;;;5.35;4.85;;;22.10;65.90;;;;;;6261847;27;84576;-75
2022/04/13 06:41:42;;;;;;;5.68;5.18;;;22.10;65.90;;;;;;6245844;27;83833;-76
2022/04/13 06:44:45;;;;;;;5.57;5.07;;;22.10;65.90;;;;;;6237089;28;84353;-76
2022/04/13 06:47:48;;;;;;;4.82;4.43;;;22.10;65.90;;;;;;6238796;28;83240;-75
2022/04/13 06:50:50;;;;;;;5.32;4.82;;;22.10;65.90;;;;;;6238502;28;84061;-76
2022/04/13 06:53:52;;;;;;;5.40;4.90;;;22.10;65.90;;;;;;6236653;28;82940;-76
2022/04/13 06:56:54;;;;;;;5.40;4.90;;;22.20;65.90;;;;;;6235409;28;83968;-76
2022/04/13 06:59:58;;;;;;;5.60;5.10;;;22.20;65.90;;;;;;6237607;28;85313;-76
2022/04/13 07:03:00;;;;;;;5.18;4.70;;;22.20;65.90;;;;;;6238091;28;82676;-76
2022/04/13 07:06:02;;;;;;;5.32;4.82;;;22.20;65.90;;;;;;6236694;28;83999;-77
2022/04/13 07:09:04;;;;;;;6.05;5.45;;;22.20;65.90;;;;;;6238906;28;82805;-75
2022/04/13 07:12:07;;;;;;;5.57;5.07;;;22.30;66.00;;;;;;6261206;28;84069;-76
2022/04/13 07:15:11;;;;;;;5.10;4.60;;;22.20;65.90;;;;;;6261500;27;83979;-74
2022/04/13 07:18:13;;;;;;;5.35;4.85;;;22.20;65.90;;;;;;6262144;27;84221;-76
2022/04/13 07:21:15;;;;;;;5.20;4.70;;;22.30;66.00;;;;;;6261290;27;82578;-75
2022/04/13 07:24:17;;;;;;;5.07;4.63;;;22.20;65.90;;;;;;6263462;28;83963;-75
2022/04/13 07:27:19;;;;;;;5.20;4.70;;;22.30;66.00;;;;;;6263358;28;83106;-75
2022/04/13 07:30:22;;;;;;;5.10;4.60;;;22.30;65.90;;;;;;6262245;28;84353;-76
2022/04/13 07:33:24;;;;;;;5.20;4.70;;;22.30;65.90;;;;;;6260463;27;84048;-76
2022/04/13 07:36:26;;;;;;;5.20;4.70;;;22.30;65.90;;;;;;6262338;27;83331;-75
2022/04/13 07:39:29;;;;;;;4.93;4.50;;;22.30;65.90;;;;;;6261282;27;83010;-77
2022/04/13 07:42:30;;;;;;;5.15;4.65;;;22.30;65.90;;;;;;6238630;27;84037;-76
2022/04/13 07:45:35;;;;;;;4.75;4.35;;;22.30;66.00;;;;;;6237228;28;82029;-74
2022/04/13 07:48:37;;;;;;;4.55;4.15;;;22.30;66.00;;;;;;6235737;28;83936;-76
2022/04/13 07:51:40;;;;;;;4.60;4.20;;;22.30;66.00;;;;;;6237349;28;82206;-75
2022/04/13 07:54:44;;;;;;;5.07;4.55;;;22.30;65.90;;;;;;6237866;28;83971;-75
2022/04/13 07:57:46;;;;;;;5.20;4.65;;;22.40;66.10;;;;;;6236189;28;84170;-76
2022/04/13 08:00:49;;;;;;;5.15;4.65;;;22.30;66.00;;;;;;6235401;28;84893;-75
2022/04/13 08:03:51;;;;;;;4.85;4.35;;;22.30;66.00;;;;;;6235218;28;83976;-75
2022/04/13 08:06:53;;;;;;;4.32;3.92;;;22.40;66.10;;;;;;6236423;28;83223;-74
2022/04/13 08:09:55;;;;;;;4.47;4.07;;;22.40;66.10;;;;;;6242307;28;83231;-74
2022/04/13 08:12:58;;;;;;;4.53;4.13;;;22.40;66.10;;;;;;6261671;27;84039;-75
2022/04/13 08:16:01;;;;;;;4.75;4.35;;;22.40;66.10;;;;;;6261229;27;83637;-74
2022/04/13 08:19:05;;;;;;;4.30;3.90;;;22.30;66.00;;;;;;6260379;27;83081;-76
2022/04/13 08:22:07;;;;;;;4.65;4.25;;;22.40;66.10;;;;;;6261723;27;83567;-74
2022/04/13 08:25:10;;;;;;;4.63;4.22;;;22.40;66.10;;;;;;6259040;27;84167;-74
2022/04/13 08:28:12;;;;;;;4.32;3.92;;;22.30;66.10;;;;;;6261483;27;84295;-73
2022/04/13 08:31:16;;;;;;;4.70;4.20;;;22.40;66.10;;;;;;6259803;27;85110;-73
2022/04/13 08:34:18;;;;;;;4.40;4.00;;;22.30;66.10;;;;;;6262356;27;84048;-74
2022/04/13 08:37:38;;;;;;;4.40;4.00;;;22.40;66.10;;;;;;6258679;27;83997;-73
2022/04/13 08:40:49;;;;;;;4.10;3.80;;;22.40;66.10;;;;;;6251692;27;83212;-74
2022/04/13 08:43:54;;;;;;;4.70;4.30;;;22.40;66.10;;;;;;6235346;28;82033;-74
2022/04/13 08:47:02;;;;;;;4.43;3.72;;;22.40;66.20;;;;;;6235730;28;84038;-74
2022/04/13 08:50:06;;;;;;;4.43;4.07;;;22.40;66.20;;;;;;6234431;28;84277;-74
2022/04/13 08:53:12;;;;;;;4.32;3.92;;;22.40;66.20;;;;;;6235142;28;83392;-74
2022/04/13 08:56:17;;;;;;;4.30;3.90;;;22.40;66.20;;;;;;6234139;28;84221;-74
2022/04/13 08:59:29;;;;;;;4.22;3.83;;;22.40;66.20;;;;;;6234013;28;84378;-74
2022/04/13 09:02:49;;;;;;;3.95;3.55;;;22.40;66.20;;;;;;6233951;28;85051;-74
2022/04/13 09:05:54;;;;;;;4.38;3.97;;;22.40;66.30;;;;;;6235590;28;83907;-74
2022/04/13 09:09:02;;;;;;;4.32;3.92;;;22.40;66.40;;;;;;6235779;28;84027;-74
2022/04/13 09:12:05;;;;;;;4.15;3.75;;;22.40;66.30;;;;;;6258164;28;83165;-75
2022/04/13 09:15:08;;;;;;;3.80;3.50;;;22.30;66.40;;;;;;6260226;27;82963;-75
2022/04/13 09:18:12;;;;;;;4.10;3.70;;;22.40;66.40;;;;;;6263452;27;84105;-75
2022/04/13 09:21:17;;;;;;;3.80;3.50;;;22.40;66.40;;;;;;6264947;27;83318;-75
2022/04/13 09:24:20;;;;;;;4.00;3.60;;;22.40;66.40;;;;;;6265035;27;83500;-74
2022/04/13 09:27:24;;;;;;;3.95;3.60;;;22.40;66.40;;;;;;6263099;27;84116;-74
2022/04/13 09:30:27;;;;;;;3.65;3.35;;;22.40;66.40;;;;;;6263725;27;84137;-75
2022/04/13 09:33:30;;;;;;;3.70;3.40;;;22.40;66.40;;;;;;6264345;27;84938;-75
2022/04/13 09:36:33;;;;;;;4.00;3.60;;;22.40;66.50;;;;;;6263686;27;82842;-75
2022/04/13 09:39:36;;;;;;;3.95;3.40;;;22.40;66.50;;;;;;6264749;27;84218;-75
2022/04/13 09:42:38;;;;;;;3.80;3.50;;;22.40;66.60;;;;;;6239098;27;84024;-75
2022/04/13 09:45:42;;;;;;;3.72;3.42;;;22.40;66.60;;;;;;6240058;28;83243;-75
2022/04/13 09:48:45;;;;;;;4.22;3.30;;;22.40;66.60;;;;;;6237634;28;84197;-75
2022/04/13 09:51:49;;;;;;;3.80;3.50;;;22.40;66.60;;;;;;6239432;28;82750;-74
2022/04/13 09:54:52;;;;;;;3.70;3.40;;;22.40;66.60;;;;;;6240109;28;83346;-74
2022/04/13 09:58:04;;;;;;;3.53;3.22;;;22.40;66.60;;;;;;6238420;28;84095;-75
2022/04/13 10:01:07;;;;;;;3.85;3.53;;;22.50;66.60;;;;;;6237747;28;84253;-74
2022/04/13 10:04:23;;;;;;;3.80;3.40;;;22.40;66.60;;;;;;6238933;28;83742;-75
2022/04/13 10:07:26;;;;;;;3.75;3.45;;;22.50;66.70;;;;;;6238192;28;82761;-74
2022/04/13 10:10:28;;;;;;;3.63;3.33;;;22.50;66.60;;;;;;6248756;28;82057;-75
2022/04/13 10:13:32;;;;;;;3.50;3.20;;;22.50;66.60;;;;;;6263308;27;83069;-74
2022/04/13 10:16:35;;;;;;;3.42;3.13;;;22.50;66.60;;;;;;6263794;27;84020;-74
2022/04/13 10:19:38;;;;;;;3.70;3.40;;;22.50;66.60;;;;;;6262489;27;83943;-75
2022/04/13 10:22:59;;;;;;;4.00;3.58;;;22.50;66.60;;;;;;6263055;27;84101;-75
2022/04/13 10:26:10;;;;;;;3.65;3.35;;;22.50;66.60;;;;;;6263338;27;83228;-75
2022/04/13 10:29:18;;;;;;;3.40;3.10;;;22.50;66.70;;;;;;6261632;27;84338;-74
2022/04/13 10:32:24;;;;;;;3.60;3.30;;;22.50;66.70;;;;;;6261479;27;84172;-76
2022/04/13 10:35:28;;;;;;;3.78;3.45;;;22.50;66.70;;;;;;6261420;27;84862;-74
2022/04/13 10:38:30;;;;;;;3.58;3.28;;;22.50;66.70;;;;;;6261508;27;84059;-74
2022/04/13 10:41:33;;;;;;;3.45;3.15;;;22.50;66.70;;;;;;6248187;27;83510;-74
2022/04/13 10:44:37;;;;;;;3.17;2.92;;;22.50;66.70;;;;;;6237583;28;84256;-74
2022/04/13 10:47:49;;;;;;;3.53;3.22;;;22.50;66.80;;;;;;6237161;28;84074;-75
2022/04/13 10:50:56;;;;;;;3.40;3.10;;;22.50;66.80;;;;;;6237593;28;84213;-73
2022/04/13 10:54:01;;;;;;;3.50;3.03;;;22.50;66.80;;;;;;6236175;28;84430;-75
2022/04/13 10:57:07;;;;;;;3.13;2.83;;;22.50;66.80;;;;;;6235771;28;82143;-75
2022/04/13 11:00:11;;;;;;;3.53;3.22;;;22.50;66.80;;;;;;6238470;28;84043;-73
2022/04/13 11:03:16;;;;;;;3.50;3.20;;;22.50;66.80;;;;;;6238784;28;84008;-74
2022/04/13 11:06:21;;;;;;;3.50;3.20;;;22.60;66.90;;;;;;6234660;28;85058;-75
2022/04/13 11:09:29;;;;;;;3.33;3.03;;;22.50;66.80;;;;;;6237666;28;84091;-74
2022/04/13 11:12:32;;;;;;;3.03;2.83;;;22.50;66.80;;;;;;6261372;27;83232;-74
2022/04/13 11:15:39;;;;;;;3.22;2.92;;;22.60;66.90;;;;;;6262896;27;84075;-74
2022/04/13 11:18:41;;;;;;;3.13;2.90;;;22.50;66.90;;;;;;6262032;27;84134;-74
2022/04/13 11:22:13;;;;;;;3.75;3.45;;;22.50;66.90;;;;;;6261539;27;84135;-75
2022/04/13 11:25:43;;;;;;;3.20;2.90;;;22.50;66.90;;;;;;6262445;27;83190;-76
2022/04/13 11:28:45;;;;;;;3.13;2.83;;;22.50;66.90;;;;;;6261339;27;82241;-75
2022/04/13 11:32:09;;;;;;;3.30;3.00;;;22.50;66.90;;;;;;6260322;27;84171;-75
2022/04/13 11:35:25;;;;;;;3.40;3.10;;;22.50;66.90;;;;;;6262442;28;84646;-76
2022/04/13 11:38:36;;;;;;;3.53;3.22;;;22.50;66.90;;;;;;6261531;27;85065;-75
2022/04/13 11:41:38;;;;;;;2.92;2.72;;;22.50;66.90;;;;;;6244218;27;84113;-75
2022/04/13 11:44:47;;;;;;;2.95;2.70;;;22.50;66.90;;;;;;6234619;28;84064;-75
2022/04/13 11:48:03;;;;;;;2.88;2.67;;;22.50;66.90;;;;;;6236039;28;84020;-75
2022/04/13 11:51:24;;;;;;;3.00;2.70;;;22.50;67.00;;;;;;6235095;28;84109;-76
2022/04/13 11:54:46;;;;;;;2.85;2.65;;;22.60;66.90;;;;;;6236000;28;85853;-75
2022/04/13 11:58:22;;;;;;;3.38;3.08;;;22.50;66.90;;;;;;6235113;28;83900;-75
2022/04/13 12:01:25;;;;;;;3.05;2.75;;;22.60;67.10;;;;;;6238435;28;83300;-74
2022/04/13 12:04:32;;;;;;;3.03;2.83;;;22.50;66.90;;;;;;6235900;28;82954;-75
2022/04/13 12:07:35;;;;;;;2.92;2.72;;;22.60;67.00;;;;;;6235210;28;83970;-74
2022/04/13 12:10:40;;;;;;;3.03;2.70;;;22.50;66.90;;;;;;6248094;28;84987;-75
2022/04/13 12:13:51;;;;;;;3.25;2.95;;;22.50;66.90;;;;;;6260192;28;84269;-74
2022/04/13 12:16:56;;;;;;;3.25;2.95;;;22.50;66.90;;;;;;6259870;27;84394;-74
2022/04/13 12:19:58;;;;;;;3.15;2.92;;;22.50;66.90;;;;;;6260405;27;84118;-75
2022/04/13 12:23:15;;;;;;;2.80;2.60;;;22.60;67.00;;;;;;6261371;27;84114;-75
2022/04/13 12:26:30;;;;;;;3.17;2.90;;;22.50;67.00;;;;;;6261830;27;84061;-76
2022/04/13 12:29:32;;;;;;;2.85;2.65;;;22.50;67.00;;;;;;6259627;27;84406;-74
2022/04/13 12:32:34;;;;;;;3.17;2.88;;;22.50;67.00;;;;;;6261541;27;83402;-75
2022/04/13 12:35:47;;;;;;;2.70;2.50;;;22.50;67.00;;;;;;6259925;27;83996;-75
2022/04/13 12:38:54;;;;;;;3.15;2.83;;;22.50;67.00;;;;;;6261613;27;82984;-75
2022/04/13 12:41:58;;;;;;;2.80;2.60;;;22.60;67.10;;;;;;6241429;27;83873;-75
2022/04/13 12:45:01;;;;;;;2.83;2.63;;;22.50;66.90;;;;;;6235324;28;83938;-74
2022/04/13 12:48:09;;;;;;;2.92;2.72;;;22.60;67.00;;;;;;6235962;28;83935;-75
2022/04/13 12:51:12;;;;;;;2.97;2.70;;;22.60;67.00;;;;;;6234344;28;84141;-75
2022/04/13 12:54:18;;;;;;;2.90;2.60;;;22.60;67.10;;;;;;6235531;28;84063;-75
2022/04/13 12:57:23;;;;;;;2.70;2.50;;;22.60;67.10;;;;;;6235622;28;83109;-76
2022/04/13 13:00:47;;;;;;;2.78;2.58;;;22.60;67.10;;;;;;6235910;28;84054;-75
2022/04/13 13:03:51;;;;;;;2.90;2.60;;;22.50;67.00;;;;;;6237179;28;82830;-76
2022/04/13 13:06:54;;;;;;;2.90;2.70;;;22.50;67.10;;;;;;6235399;28;84098;-75
2022/04/13 13:09:56;;;;;;;3.55;2.75;;;22.50;67.00;;;;;;6242163;28;83963;-76
2022/04/13 13:13:11;;;;;;;2.70;2.50;;;22.50;67.10;;;;;;6259216;27;85211;-75
2022/04/13 13:16:33;;;;;;;2.90;2.70;;;22.60;67.10;;;;;;6259775;27;84424;-75
2022/04/13 13:19:35;;;;;;;2.67;2.45;;;22.50;67.10;;;;;;6259372;27;84132;-76
2022/04/13 13:22:39;;;;;;;2.75;2.47;;;22.50;67.10;;;;;;6260193;27;82919;-75
2022/04/13 13:25:42;;;;;;;2.85;2.50;;;22.60;67.10;;;;;;6260070;27;82962;-76
2022/04/13 13:28:46;;;;;;;2.70;2.50;;;22.50;67.10;;;;;;6258551;27;82160;-75
2022/04/13 13:31:48;;;;;;;2.70;2.50;;;22.50;67.10;;;;;;6259677;27;83997;-76
2022/04/13 13:34:55;;;;;;;2.70;2.50;;;22.50;67.10;;;;;;6259403;27;84434;-76
2022/04/13 13:38:07;;;;;;;2.60;2.40;;;22.50;67.10;;;;;;6259227;27;84109;-76
2022/04/13 13:41:11;;;;;;;2.70;2.50;;;22.50;67.10;;;;;;6246885;27;84099;-76
2022/04/13 13:44:24;;;;;;;2.47;2.28;;;22.50;67.10;;;;;;6234703;28;83701;-75
2022/04/13 13:47:27;;;;;;;2.83;2.60;;;22.50;68.00;;;;;;6233594;28;83011;-76
2022/04/13 13:50:29;;;;;;;2.70;2.50;;;22.60;67.20;;;;;;6235479;28;83974;-75
2022/04/13 13:53:31;;;;;;;2.70;2.50;;;22.50;67.10;;;;;;6234393;28;82906;-76
2022/04/13 13:56:33;;;;;;;2.47;2.28;;;22.60;67.20;;;;;;6232344;28;84212;-76
2022/04/13 13:59:37;;;;;;;2.60;2.40;;;22.50;67.10;;;;;;6234060;28;82917;-75
2022/04/13 14:02:39;;;;;;;2.80;2.60;;;22.50;67.10;;;;;;6237091;28;82420;-76
2022/04/13 14:05:42;;;;;;;2.88;2.38;;;22.60;67.20;;;;;;6239478;28;83983;-76
2022/04/13 14:08:44;;;;;;;2.55;2.35;;;22.50;67.10;;;;;;6236781;28;83079;-76
2022/04/13 14:11:46;;;;;;;2.70;2.50;;;22.50;67.10;;;;;;6260065;28;82732;-76
2022/04/13 14:14:50;;;;;;;2.60;2.40;;;22.50;67.10;;;;;;6263483;27;84888;-76
2022/04/13 14:17:52;;;;;;;2.80;2.60;;;22.50;67.10;;;;;;6263532;27;84117;-77
2022/04/13 14:20:54;;;;;;;2.83;2.63;;;22.50;67.30;;;;;;6261210;27;84037;-75
2022/04/13 14:23:57;;;;;;;2.97;2.67;;;22.50;67.10;;;;;;6264266;27;84054;-76
2022/04/13 14:26:59;;;;;;;2.60;2.40;;;22.50;67.10;;;;;;6263592;27;85736;-76
2022/04/13 14:30:03;;;;;;;2.60;2.33;;;22.50;67.10;;;;;;6262480;27;82815;-76
2022/04/13 14:33:05;;;;;;;2.70;2.50;;;22.50;67.20;;;;;;6263887;27;82933;-77
2022/04/13 14:36:07;;;;;;;2.50;2.30;;;22.50;67.10;;;;;;6263002;27;83313;-76
2022/04/13 14:39:09;;;;;;;2.42;2.22;;;22.50;67.10;;;;;;6263259;27;83853;-77
2022/04/13 14:42:11;;;;;;;2.78;2.38;;;22.50;67.10;;;;;;6240894;27;84047;-76
2022/04/13 14:45:15;;;;;;;2.40;2.20;;;22.50;67.20;;;;;;6238044;28;83851;-77
2022/04/13 14:48:17;;;;;;;2.53;2.33;;;22.50;67.20;;;;;;6237357;28;82889;-76
2022/04/13 14:51:19;;;;;;;2.60;2.40;;;22.50;67.20;;;;;;6237307;28;84329;-77
2022/04/13 14:54:22;;;;;;;2.63;2.42;;;22.50;67.20;;;;;;6235669;28;82850;-76
2022/04/13 14:57:24;;;;;;;2.55;2.35;;;22.50;67.20;;;;;;6238630;28;84092;-75
2022/04/13 15:00:27;;;;;;;2.58;2.38;;;22.50;67.20;;;;;;6236754;28;82931;-77
2022/04/13 15:03:29;;;;;;;2.67;2.47;;;22.50;67.20;;;;;;6237522;28;85432;-76
2022/04/13 15:06:31;;;;;;;2.58;2.38;;;22.50;67.20;;;;;;6237523;28;83286;-75
2022/04/13 15:09:33;;;;;;;2.92;2.60;;;22.50;67.20;;;;;;6237772;28;84074;-76
2022/04/13 15:12:36;;;;;;;2.67;2.47;;;22.50;67.20;;;;;;6261538;27;83908;-76
2022/04/13 15:15:41;;;;;;;2.75;2.55;;;22.50;67.20;;;;;;6261652;27;83860;-74
2022/04/13 15:18:43;;;;;;;2.70;2.50;;;22.50;67.10;;;;;;6262273;27;84010;-75
2022/04/13 15:21:45;;;;;;;2.70;2.50;;;22.50;67.20;;;;;;6260098;27;84063;-76
2022/04/13 15:24:47;;;;;;;2.50;2.30;;;22.50;67.20;;;;;;6262396;27;82736;-75
2022/04/13 15:27:49;;;;;;;2.85;2.65;;;22.50;67.20;;;;;;6259687;27;82727;-76
2022/04/13 15:31:00;;;;;;;3.15;2.80;;;22.50;67.20;;;;;;6262639;27;82942;-76
2022/04/13 15:34:02;;;;;;;3.15;2.85;;;22.50;67.20;;;;;;6263330;27;84304;-76
2022/04/13 15:37:04;;;;;;;2.80;2.60;;;22.50;67.20;;;;;;6262660;27;82055;-76
2022/04/13 15:40:07;;;;;;;2.70;2.50;;;22.50;67.20;;;;;;6258851;27;81827;-76
2022/04/13 15:43:09;;;;;;;2.90;2.65;;;22.50;67.20;;;;;;6236110;28;82753;-76
2022/04/13 15:46:13;;;;;;;2.70;2.50;;;22.50;67.20;;;;;;6235458;28;84087;-75
2022/04/13 15:49:15;;;;;;;3.00;2.70;;;22.50;67.20;;;;;;6237850;28;82939;-75
2022/04/13 15:52:35;;;;;;;2.75;2.55;;;22.50;67.20;;;;;;6236549;28;83947;-76
2022/04/13 15:55:38;;;;;;;3.10;2.70;;;22.50;67.20;;;;;;6236642;28;84091;-77
2022/04/13 15:58:41;;;;;;;3.03;2.80;;;22.50;67.20;;;;;;6236088;28;84246;-77
2022/04/13 16:01:44;;;;;;;2.90;2.60;;;22.50;67.20;;;;;;6234817;28;84529;-77